Defne-s — TCTI5 — position and weather

sailwx.info

Track history (hours):
 
Tides and Currents Weather Stations Pressure Air Temp Water Temp Dewpoint Dewpoint Depression Visibility Wind Speed Wind Dir Waves Ship Positions

Defne-s

Last reported at 2017-Jun-28 13:21 UTC. Time now 2017-Jun-29 14:16 UTC.
Position N 54°38' E 019°55'.

Length 109 m; draft 5 m.

Type: Tanker. MMSI: 271002639.

Date/timePositionNaut miles runAvg speedWind from/ knotsBaromVisibWave heightAir tempDewpointWater temp
2017-Jun-28 13:21N 54°38' E 019°55'3 7.6
2017-Jun-28 13:00N 54°39' E 019°51'2 4.0
2017-Jun-28 12:30N 54°40' E 019°48'0 0.2
2017-Jun-28 11:54N 54°40' E 019°47'0 0.0
2017-Jun-28 11:27N 54°40' E 019°47'0 0.0
2017-Jun-28 11:00N 54°40' E 019°47'0 0.0
2017-Jun-28 10:30N 54°40' E 019°47'0 0.0
2017-Jun-28 09:57N 54°40' E 019°47'0 0.0
2017-Jun-28 09:30N 54°40' E 019°47'0 0.0
2017-Jun-28 08:57N 54°40' E 019°47'0 0.0
2017-Jun-28 08:30N 54°40' E 019°47'0 0.2
2017-Jun-28 08:00N 54°40' E 019°48'4 8.4
2017-Jun-28 07:30N 54°42' E 019°42'5 9.3
2017-Jun-28 07:00N 54°45' E 019°35'510.0
2017-Jun-28 06:30N 54°47' E 019°28'510.6
2017-Jun-28 06:00N 54°50' E 019°20'510.0
2017-Jun-28 05:30N 54°54' E 019°14'510.6
2017-Jun-28 05:00N 54°58' E 019°11'510.8
2017-Jun-28 04:30N 55°03' E 019°07'510.9
2017-Jun-28 04:00N 55°08' E 019°03'510.7
2017-Jun-28 03:30N 55°13' E 018°59'510.6
2017-Jun-28 03:00N 55°18' E 018°55'510.7
2017-Jun-28 02:30N 55°23' E 018°51'510.8
2017-Jun-28 02:00N 55°28' E 018°47'510.7
2017-Jun-28 01:30N 55°33' E 018°43'510.7
2017-Jun-28 01:00N 55°37' E 018°39'810.7
2017-Jun-28 00:16N 55°45' E 018°33'310.6
2017-Jun-28 00:00N 55°47' E 018°31'510.2
2017-Jun-27 23:30N 55°52' E 018°27'510.1
2017-Jun-27 23:00N 55°56' E 018°24'510.2
2017-Jun-27 22:30N 56°01' E 018°20'510.3
2017-Jun-27 22:00N 56°06' E 018°17'510.3
2017-Jun-27 21:30N 56°11' E 018°13'510.4
2017-Jun-27 21:00N 56°15' E 018°09'510.4
2017-Jun-27 20:30N 56°20' E 018°05'510.5
2017-Jun-27 20:00N 56°25' E 018°01'611.7
2017-Jun-27 19:30N 56°30' E 017°57'612.5
2017-Jun-27 19:00N 56°36' E 017°52'54 9.3
2017-Jun-27 13:08N 57°17' E 016°46'212.8
2017-Jun-27 13:00N 57°16' E 016°45'612.8
2017-Jun-27 12:30N 57°11' E 016°37'510.2
2017-Jun-27 12:00N 57°06' E 016°33'0 0.0
2017-Jun-26 18:45N 57°06' E 016°33'1 3.7
2017-Jun-26 18:28N 57°07' E 016°33'4 7.8
2017-Jun-26 18:00N 57°10' E 016°36'510.1
2017-Jun-26 17:30N 57°14' E 016°42'47 6.7
2017-Jun-26 10:26N 56°27' E 016°52'612.0
2017-Jun-26 09:57N 56°21' E 016°52'511.7
2017-Jun-26 09:30N 56°16' E 016°53'611.8
2017-Jun-26 09:00N 56°10' E 016°52'611.6
2017-Jun-26 08:30N 56°04' E 016°53'510.0
2017-Jun-26 08:00N 56°00' E 016°58'6810.2
2017-Jun-26 01:19N 55°10' E 018°20'311.1
2017-Jun-26 01:00N 55°08' E 018°25'611.3
2017-Jun-26 00:30N 55°04' E 018°32'611.2
2017-Jun-26 00:00N 54°60' E 018°39'611.8
2017-Jun-25 23:30N 54°56' E 018°46'612.1
2017-Jun-25 23:00N 54°51' E 018°53'612.2
2017-Jun-25 22:30N 54°46' E 018°60'510.9
2017-Jun-25 22:00N 54°41' E 018°59'612.0
2017-Jun-25 21:30N 54°36' E 018°54'612.2
2017-Jun-25 21:00N 54°31' E 018°47'612.1
2017-Jun-25 20:30N 54°27' E 018°40'3 5.2
2017-Jun-25 20:00N 54°24' E 018°41'2 3.0
2017-Jun-25 19:28N 54°23' E 018°40'0 0.0
2017-Jun-25 18:58N 54°23' E 018°40'0 0.0
2017-Jun-25 18:28N 54°23' E 018°40'0 0.0
2017-Jun-25 17:58N 54°23' E 018°40'0 0.0
2017-Jun-25 17:28N 54°23' E 018°40'0 0.0
2017-Jun-25 16:58N 54°23' E 018°40'0 0.0
2017-Jun-25 16:28N 54°23' E 018°40'0 0.0
2017-Jun-25 15:58N 54°23' E 018°40'0 0.0
2017-Jun-25 15:28N 54°23' E 018°40'0 0.0
2017-Jun-25 14:55N 54°23' E 018°40'0 0.0
2017-Jun-25 14:25N 54°23' E 018°40'0 0.0
2017-Jun-25 13:28N 54°23' E 018°40'0 0.0
2017-Jun-25 12:55N 54°23' E 018°40'0 0.0
2017-Jun-25 12:28N 54°23' E 018°40'0 0.0
2017-Jun-25 11:55N 54°23' E 018°40'0 0.0
2017-Jun-25 11:28N 54°23' E 018°40'0 0.0
2017-Jun-25 10:58N 54°23' E 018°40'0 0.0
2017-Jun-25 10:28N 54°23' E 018°40'0 0.0
2017-Jun-25 09:58N 54°23' E 018°40'0 0.0
2017-Jun-25 09:28N 54°23' E 018°40'0 0.0
2017-Jun-25 08:58N 54°23' E 018°40'0 0.0
2017-Jun-25 08:28N 54°23' E 018°40'0 0.0
2017-Jun-25 07:58N 54°23' E 018°40'0 0.0
2017-Jun-25 07:28N 54°23' E 018°40'0 0.0
2017-Jun-25 06:55N 54°23' E 018°40'0 0.0
2017-Jun-25 06:28N 54°23' E 018°40'0 0.0
2017-Jun-25 05:58N 54°23' E 018°40'0 0.0
2017-Jun-25 05:28N 54°23' E 018°40'0 0.0
2017-Jun-25 04:58N 54°23' E 018°40'0 0.0
2017-Jun-25 04:28N 54°23' E 018°40'0 0.0
2017-Jun-25 03:58N 54°23' E 018°40'0 0.0
2017-Jun-25 03:28N 54°23' E 018°40'0 0.0
2017-Jun-25 02:58N 54°23' E 018°40'0 0.0
2017-Jun-25 02:28N 54°23' E 018°40'0 0.0
2017-Jun-25 01:58N 54°23' E 018°40'0 0.0
2017-Jun-25 01:28N 54°23' E 018°40'0 0.0
2017-Jun-25 00:58N 54°23' E 018°40'0 0.0
2017-Jun-25 00:28N 54°23' E 018°40'0 0.0
2017-Jun-24 23:58N 54°23' E 018°40'0 0.0
2017-Jun-24 23:28N 54°23' E 018°40'0 0.0
2017-Jun-24 22:58N 54°23' E 018°40'0 0.5
2017-Jun-24 22:31N 54°23' E 018°40'2 3.4
2017-Jun-24 22:00N 54°25' E 018°40'4 7.4
2017-Jun-24 21:31N 54°28' E 018°42'4 8.8
2017-Jun-24 21:01N 54°31' E 018°47'611.1
2017-Jun-24 20:30N 54°36' E 018°53'511.1
2017-Jun-24 20:01N 54°41' E 018°56'611.0
2017-Jun-24 19:31N 54°46' E 018°60'611.0
2017-Jun-24 19:00N 54°51' E 018°57'510.3
2017-Jun-24 18:31N 54°54' E 018°49'611.1
2017-Jun-24 18:01N 54°56' E 018°40'611.4
2017-Jun-24 17:30N 54°58' E 018°31'611.2
2017-Jun-24 17:00N 54°59' E 018°21'611.7
2017-Jun-24 16:30N 54°58' E 018°11'612.0
2017-Jun-24 16:00N 54°57' E 018°01'12812.1
2017-Jun-24 05:27N 54°35' E 014°23'1411.2
2017-Jun-24 04:14N 54°42' E 014°02'211.0
2017-Jun-24 04:00N 54°44' E 013°59'5 8.1
2017-Jun-24 03:26N 54°46' E 013°53'4 8.0
2017-Jun-24 02:57N 54°49' E 013°48'7 8.0
2017-Jun-24 02:05N 54°53' E 013°38'1 8.1
2017-Jun-24 01:59N 54°54' E 013°37'4 8.2
2017-Jun-24 01:29N 54°57' E 013°32'2512.0
2017-Jun-23 23:24N 55°12' E 012°58'513.0
2017-Jun-23 23:00N 55°15' E 012°51'713.3
2017-Jun-23 22:30N 55°17' E 012°40'612.2
2017-Jun-23 22:00N 55°23' E 012°39'612.5
2017-Jun-23 21:30N 55°29' E 012°42'612.1
2017-Jun-23 21:01N 55°34' E 012°49'612.2
2017-Jun-23 20:31N 55°39' E 012°56'612.5
2017-Jun-23 20:01N 55°44' E 012°51'713.1
2017-Jun-23 19:31N 55°50' E 012°45'612.9
2017-Jun-23 19:01N 55°55' E 012°38'612.1
2017-Jun-23 18:31N 56°01' E 012°40'611.8
2017-Jun-23 18:01N 56°06' E 012°33'713.4
2017-Jun-23 17:31N 56°10' E 012°24'713.1
2017-Jun-23 17:00N 56°13' E 012°14'713.9
2017-Jun-23 16:30N 56°17' E 012°03'6013.3
2017-Jun-23 12:01N 57°14' E 011°33'112.4
2017-Jun-23 11:56N 57°15' E 011°32'712.8
2017-Jun-23 11:23N 57°22' E 011°28'512.8
2017-Jun-23 10:58N 57°27' E 011°24'612.4
2017-Jun-23 10:29N 57°32' E 011°19'612.4
2017-Jun-23 10:00N 57°37' E 011°13'612.6
2017-Jun-23 09:29N 57°43' E 011°07'612.3
2017-Jun-23 08:59N 57°48' E 011°01'612.2
2017-Jun-23 08:30N 57°53' E 010°55'611.8
2017-Jun-23 07:58N 57°57' E 010°46'611.3
2017-Jun-23 07:28N 57°59' E 010°36'612.1
2017-Jun-23 07:00N 57°57' E 010°25'712.3
2017-Jun-23 06:28N 57°56' E 010°13'712.8
2017-Jun-23 05:53N 57°55' E 009°59'513.3
2017-Jun-23 05:30N 57°55' E 009°49'612.3
2017-Jun-23 05:00N 57°54' E 009°38'612.2
2017-Jun-23 04:30N 57°52' E 009°27'612.8
2017-Jun-23 03:59N 57°50' E 009°15'612.9
2017-Jun-23 03:30N 57°49' E 009°04'812.7
2017-Jun-23 02:54N 57°47' E 008°50'512.7
2017-Jun-23 02:29N 57°46' E 008°40'612.7
2017-Jun-23 02:00N 57°45' E 008°29'712.6
2017-Jun-23 01:25N 57°43' E 008°15'2412.5
2017-Jun-22 23:30N 57°41' E 007°31'612.4
2017-Jun-22 23:00N 57°42' E 007°19'1012.4
2017-Jun-22 22:10N 57°42' E 006°60'212.4
2017-Jun-22 22:00N 57°42' E 006°56'612.3
2017-Jun-22 21:30N 57°42' E 006°45'612.0
2017-Jun-22 21:00N 57°43' E 006°33'611.9
2017-Jun-22 20:30N 57°47' E 006°25'712.3
2017-Jun-22 19:58N 57°51' E 006°15'612.4
2017-Jun-22 19:30N 57°55' E 006°07'612.0
2017-Jun-22 19:00N 57°59' E 005°59'612.3
2017-Jun-22 18:30N 58°03' E 005°50'612.2
2017-Jun-22 17:59N 58°07' E 005°41'1812.1
2017-Jun-22 16:33N 58°19' E 005°16'112.2
2017-Jun-22 16:27N 58°20' E 005°15'811.9
2017-Jun-22 15:45N 58°28' E 005°10'312.1
2017-Jun-22 15:30N 58°30' E 005°09'612.6
2017-Jun-22 15:00N 58°37' E 005°07'612.3
2017-Jun-22 14:30N 58°43' E 005°04'1211.9
2017-Jun-22 13:30N 58°54' E 005°12'612.6
2017-Jun-22 13:00N 58°60' E 005°17'612.5
2017-Jun-22 12:30N 59°06' E 005°19'612.4
2017-Jun-22 12:00N 59°12' E 005°20'611.1
2017-Jun-22 11:30N 59°17' E 005°20'3 5.7
2017-Jun-22 11:00N 59°20' E 005°18'0 0.0
2017-Jun-22 10:28N 59°20' E 005°18'0 0.0
2017-Jun-22 10:01N 59°20' E 005°18'0 0.0
2017-Jun-22 09:28N 59°20' E 005°18'0 0.0
2017-Jun-22 09:01N 59°20' E 005°18'0 0.0
2017-Jun-22 08:28N 59°20' E 005°18'0 0.0
2017-Jun-22 07:58N 59°20' E 005°18'0 0.0
2017-Jun-22 07:28N 59°20' E 005°18'0 0.0
2017-Jun-22 06:58N 59°20' E 005°18'0 0.0
2017-Jun-22 06:31N 59°20' E 005°18'0 0.0
2017-Jun-22 06:01N 59°20' E 005°18'0 0.0
2017-Jun-22 05:31N 59°20' E 005°18'0 0.0
2017-Jun-22 04:58N 59°20' E 005°18'0 0.0
2017-Jun-22 04:31N 59°20' E 005°18'0 0.0
2017-Jun-22 03:58N 59°20' E 005°18'0 0.0
2017-Jun-22 03:28N 59°20' E 005°18'0 0.0
2017-Jun-22 03:01N 59°20' E 005°18'0 0.0
2017-Jun-22 02:28N 59°20' E 005°18'0 0.0
2017-Jun-22 02:01N 59°20' E 005°18'0 0.0
2017-Jun-22 01:28N 59°20' E 005°18'0 0.0
2017-Jun-22 00:58N 59°20' E 005°18'0 0.0
2017-Jun-22 00:31N 59°20' E 005°18'0 0.0
2017-Jun-22 00:01N 59°20' E 005°18'0 0.0
2017-Jun-21 23:28N 59°20' E 005°18'0 0.0
2017-Jun-21 23:01N 59°20' E 005°18'0 0.0
2017-Jun-21 22:28N 59°20' E 005°18'0 0.0
2017-Jun-21 22:01N 59°20' E 005°18'0 0.0
2017-Jun-21 21:28N 59°20' E 005°18'0 0.0
2017-Jun-21 20:58N 59°20' E 005°18'0 0.0
2017-Jun-21 20:28N 59°20' E 005°18'0 0.0
2017-Jun-21 20:01N 59°20' E 005°18'0 0.0
2017-Jun-21 19:31N 59°20' E 005°18'0 0.0
2017-Jun-21 19:01N 59°20' E 005°18'0 0.0
2017-Jun-21 18:28N 59°20' E 005°18'0 0.0
2017-Jun-21 17:58N 59°20' E 005°18'0 0.0
2017-Jun-21 17:31N 59°20' E 005°18'0 0.0
2017-Jun-21 17:01N 59°20' E 005°18'0 0.0
2017-Jun-21 16:28N 59°20' E 005°18'0 0.0
2017-Jun-21 16:01N 59°20' E 005°18'0 0.0
2017-Jun-21 15:28N 59°20' E 005°18'0 0.0
2017-Jun-21 15:01N 59°20' E 005°18'0 0.0
2017-Jun-21 14:31N 59°20' E 005°18'0 0.0
2017-Jun-21 13:31N 59°20' E 005°18'0 0.0
2017-Jun-21 12:58N 59°20' E 005°18'0 0.0
2017-Jun-21 12:31N 59°20' E 005°18'0 0.0
2017-Jun-21 11:58N 59°20' E 005°18'0 0.0
2017-Jun-21 11:28N 59°20' E 005°18'0 0.0
2017-Jun-21 10:58N 59°20' E 005°18'0 0.0
2017-Jun-21 10:28N 59°20' E 005°18'0 0.0
2017-Jun-21 10:01N 59°20' E 005°18'0 0.0
2017-Jun-21 09:28N 59°20' E 005°18'0 0.0
2017-Jun-21 09:01N 59°20' E 005°18'0 0.0
2017-Jun-21 08:28N 59°20' E 005°18'0 0.0
2017-Jun-21 07:58N 59°20' E 005°18'0 0.0
2017-Jun-21 07:31N 59°20' E 005°18'0 0.0
2017-Jun-21 06:58N 59°20' E 005°18'1 1.9
2017-Jun-21 06:30N 59°20' E 005°19'611.2
2017-Jun-21 06:00N 59°14' E 005°21'3 6.9
2017-Jun-21 05:31N 59°11' E 005°22'3 5.7
2017-Jun-21 05:01N 59°08' E 005°21'3 5.2
2017-Jun-21 04:31N 59°05' E 005°21'3 5.0
2017-Jun-21 04:00N 59°03' E 005°21'3 5.2
2017-Jun-21 03:30N 59°00' E 005°19'3 5.2
2017-Jun-21 03:01N 58°58' E 005°18'3 6.7
2017-Jun-21 02:30N 58°55' E 005°16'5 9.8
2017-Jun-21 02:01N 58°50' E 005°12'612.2
2017-Jun-21 01:31N 58°44' E 005°09'612.6
2017-Jun-21 01:00N 58°38' E 005°12'612.2
2017-Jun-21 00:31N 58°32' E 005°16'611.9
2017-Jun-21 00:01N 58°27' E 005°19'611.5
2017-Jun-20 23:30N 58°22' E 005°25'612.0
2017-Jun-20 23:01N 58°17' E 005°33'611.6
2017-Jun-20 22:31N 58°14' E 005°41'611.4
2017-Jun-20 22:00N 58°10' E 005°50'611.2
2017-Jun-20 21:29N 58°06' E 005°58'510.8
2017-Jun-20 21:00N 58°03' E 006°06'610.9
2017-Jun-20 20:30N 57°59' E 006°14'610.7
2017-Jun-20 19:58N 57°56' E 006°22'5 9.9
2017-Jun-20 19:30N 57°52' E 006°28'5 9.9
2017-Jun-20 18:59N 57°49' E 006°35'510.2
2017-Jun-20 18:30N 57°48' E 006°44'511.0
2017-Jun-20 18:01N 57°48' E 006°54'611.3
2017-Jun-20 17:30N 57°48' E 007°05'611.5
2017-Jun-20 17:00N 57°48' E 007°16'3610.7
2017-Jun-20 13:37N 57°55' E 008°22'210.8
2017-Jun-20 13:28N 57°55' E 008°25'70 9.8
2017-Jun-20 06:17N 58°01' E 010°37'310.6
2017-Jun-20 05:59N 57°59' E 010°43'510.3
2017-Jun-20 05:30N 57°55' E 010°49'510.3
2017-Jun-20 05:00N 57°51' E 010°55'510.4
2017-Jun-20 04:30N 57°47' E 011°00'510.9
2017-Jun-20 04:00N 57°42' E 011°06'510.6
2017-Jun-20 03:30N 57°38' E 011°12'510.2
2017-Jun-20 03:01N 57°34' E 011°18'5 9.8
2017-Jun-20 02:30N 57°30' E 011°24'510.0
2017-Jun-20 01:58N 57°26' E 011°28'510.2
2017-Jun-20 01:30N 57°21' E 011°31'510.4
2017-Jun-20 01:00N 57°16' E 011°34'610.5
2017-Jun-20 00:28N 57°11' E 011°37'510.5
2017-Jun-20 00:00N 57°06' E 011°41'611.5
2017-Jun-19 23:27N 57°00' E 011°45'712.1
2017-Jun-19 22:54N 56°54' E 011°49'612.1
2017-Jun-19 22:24N 56°48' E 011°53'3012.1
2017-Jun-19 19:53N 56°20' E 012°11'512.5
2017-Jun-19 19:30N 56°16' E 012°16'612.6
2017-Jun-19 19:01N 56°12' E 012°24'612.9
2017-Jun-19 18:30N 56°07' E 012°33'713.2
2017-Jun-19 18:01N 56°02' E 012°40'612.9
2017-Jun-19 17:31N 55°56' E 012°44'612.7
2017-Jun-19 17:01N 55°50' E 012°46'612.7
2017-Jun-19 16:31N 55°44' E 012°51'611.9
2017-Jun-19 16:01N 55°39' E 012°56'5 9.7
2017-Jun-19 15:31N 55°35' E 012°51'4 7.7
2017-Jun-19 15:01N 55°32' E 012°46'1110.9
2017-Jun-19 14:01N 55°22' E 012°41'510.3
2017-Jun-19 13:31N 55°17' E 012°45'612.2
2017-Jun-19 13:01N 55°15' E 012°55'612.4
2017-Jun-19 12:31N 55°13' E 013°05'612.3
2017-Jun-19 12:01N 55°10' E 013°14'612.2
2017-Jun-19 11:31N 55°07' E 013°24'612.1
2017-Jun-19 11:00N 55°04' E 013°33'712.2
2017-Jun-19 10:28N 55°01' E 013°44'612.1
2017-Jun-19 10:01N 54°59' E 013°52'611.9
2017-Jun-19 09:31N 54°57' E 014°02'611.7
2017-Jun-19 09:00N 54°55' E 014°12'611.8
2017-Jun-19 08:31N 54°55' E 014°22'611.8
2017-Jun-19 08:00N 54°54' E 014°32'611.8
2017-Jun-19 07:30N 54°53' E 014°42'611.8
2017-Jun-19 07:01N 54°52' E 014°52'611.7
2017-Jun-19 06:31N 54°51' E 015°02'611.7
2017-Jun-19 06:01N 54°50' E 015°13'611.7
2017-Jun-19 05:31N 54°50' E 015°23'611.7
2017-Jun-19 05:00N 54°50' E 015°33'611.8
2017-Jun-19 04:30N 54°50' E 015°43'611.8
2017-Jun-19 04:01N 54°50' E 015°53'611.9
2017-Jun-19 03:30N 54°50' E 016°04'611.9
2017-Jun-19 03:01N 54°49' E 016°14'811.9
2017-Jun-19 02:22N 54°49' E 016°27'612.1
2017-Jun-19 01:54N 54°50' E 016°37'611.9
2017-Jun-19 01:25N 54°51' E 016°47'511.8
2017-Jun-19 00:58N 54°51' E 016°56'711.6
2017-Jun-19 00:19N 54°53' E 017°09'3211.3
2017-Jun-18 21:27N 55°00' E 018°04'511.0
2017-Jun-18 20:59N 55°01' E 018°13'511.0
2017-Jun-18 20:31N 55°01' E 018°22'510.9
2017-Jun-18 20:00N 54°60' E 018°31'511.0
2017-Jun-18 19:31N 54°58' E 018°40'611.1
2017-Jun-18 19:01N 54°56' E 018°49'611.3
2017-Jun-18 18:31N 54°54' E 018°58'611.2
2017-Jun-18 18:01N 54°52' E 019°07'611.3
2017-Jun-18 17:30N 54°50' E 019°16'611.4
2017-Jun-18 17:01N 54°47' E 019°25'611.5
2017-Jun-18 16:31N 54°45' E 019°35'611.5
2017-Jun-18 16:00N 54°42' E 019°43'611.7
2017-Jun-18 15:30N 54°39' E 019°52'3 5.9
2017-Jun-18 15:00N 54°38' E 019°56'9 6.5
2017-Jun-18 13:38N 54°41' E 020°11'  
Track history (hours):
 
Tides and Currents Weather Stations Pressure Air Temp Water Temp Dewpoint Dewpoint Depression Visibility Wind Speed Wind Dir Waves Ship Positions

Defne-s

Last reported at 2017-Jun-28 13:21 UTC. Time now 2017-Jun-29 14:16 UTC.
Position N 54°38' E 019°55'.

Length 109 m; draft 5 m.

Type: Tanker. MMSI: 271002639.

Date/timePositionNaut miles runAvg speedWind from/ knotsBaromVisibWave heightAir tempDewpointWater temp
2017-Jun-28 13:21N 54°38' E 019°55'3 7.6
2017-Jun-28 13:00N 54°39' E 019°51'2 4.0
2017-Jun-28 12:30N 54°40' E 019°48'0 0.2
2017-Jun-28 11:54N 54°40' E 019°47'0 0.0
2017-Jun-28 11:27N 54°40' E 019°47'0 0.0
2017-Jun-28 11:00N 54°40' E 019°47'0 0.0
2017-Jun-28 10:30N 54°40' E 019°47'0 0.0
2017-Jun-28 09:57N 54°40' E 019°47'0 0.0
2017-Jun-28 09:30N 54°40' E 019°47'0 0.0
2017-Jun-28 08:57N 54°40' E 019°47'0 0.0
2017-Jun-28 08:30N 54°40' E 019°47'0 0.2
2017-Jun-28 08:00N 54°40' E 019°48'4 8.4
2017-Jun-28 07:30N 54°42' E 019°42'5 9.3
2017-Jun-28 07:00N 54°45' E 019°35'510.0
2017-Jun-28 06:30N 54°47' E 019°28'510.6
2017-Jun-28 06:00N 54°50' E 019°20'510.0
2017-Jun-28 05:30N 54°54' E 019°14'510.6
2017-Jun-28 05:00N 54°58' E 019°11'510.8
2017-Jun-28 04:30N 55°03' E 019°07'510.9
2017-Jun-28 04:00N 55°08' E 019°03'510.7
2017-Jun-28 03:30N 55°13' E 018°59'510.6
2017-Jun-28 03:00N 55°18' E 018°55'510.7
2017-Jun-28 02:30N 55°23' E 018°51'510.8
2017-Jun-28 02:00N 55°28' E 018°47'510.7
2017-Jun-28 01:30N 55°33' E 018°43'510.7
2017-Jun-28 01:00N 55°37' E 018°39'810.7
2017-Jun-28 00:16N 55°45' E 018°33'310.6
2017-Jun-28 00:00N 55°47' E 018°31'510.2
2017-Jun-27 23:30N 55°52' E 018°27'510.1
2017-Jun-27 23:00N 55°56' E 018°24'510.2
2017-Jun-27 22:30N 56°01' E 018°20'510.3
2017-Jun-27 22:00N 56°06' E 018°17'510.3
2017-Jun-27 21:30N 56°11' E 018°13'510.4
2017-Jun-27 21:00N 56°15' E 018°09'510.4
2017-Jun-27 20:30N 56°20' E 018°05'510.5
2017-Jun-27 20:00N 56°25' E 018°01'611.7
2017-Jun-27 19:30N 56°30' E 017°57'612.5
2017-Jun-27 19:00N 56°36' E 017°52'54 9.3
2017-Jun-27 13:08N 57°17' E 016°46'212.8
2017-Jun-27 13:00N 57°16' E 016°45'612.8
2017-Jun-27 12:30N 57°11' E 016°37'510.2
2017-Jun-27 12:00N 57°06' E 016°33'0 0.0
2017-Jun-26 18:45N 57°06' E 016°33'1 3.7
2017-Jun-26 18:28N 57°07' E 016°33'4 7.8
2017-Jun-26 18:00N 57°10' E 016°36'510.1
2017-Jun-26 17:30N 57°14' E 016°42'47 6.7
2017-Jun-26 10:26N 56°27' E 016°52'612.0
2017-Jun-26 09:57N 56°21' E 016°52'511.7
2017-Jun-26 09:30N 56°16' E 016°53'611.8
2017-Jun-26 09:00N 56°10' E 016°52'611.6
2017-Jun-26 08:30N 56°04' E 016°53'510.0
2017-Jun-26 08:00N 56°00' E 016°58'6810.2
2017-Jun-26 01:19N 55°10' E 018°20'311.1
2017-Jun-26 01:00N 55°08' E 018°25'611.3
2017-Jun-26 00:30N 55°04' E 018°32'611.2
2017-Jun-26 00:00N 54°60' E 018°39'611.8
2017-Jun-25 23:30N 54°56' E 018°46'612.1
2017-Jun-25 23:00N 54°51' E 018°53'612.2
2017-Jun-25 22:30N 54°46' E 018°60'510.9
2017-Jun-25 22:00N 54°41' E 018°59'612.0
2017-Jun-25 21:30N 54°36' E 018°54'612.2
2017-Jun-25 21:00N 54°31' E 018°47'612.1
2017-Jun-25 20:30N 54°27' E 018°40'3 5.2
2017-Jun-25 20:00N 54°24' E 018°41'2 3.0
2017-Jun-25 19:28N 54°23' E 018°40'0 0.0
2017-Jun-25 18:58N 54°23' E 018°40'0 0.0
2017-Jun-25 18:28N 54°23' E 018°40'0 0.0
2017-Jun-25 17:58N 54°23' E 018°40'0 0.0
2017-Jun-25 17:28N 54°23' E 018°40'0 0.0
2017-Jun-25 16:58N 54°23' E 018°40'0 0.0
2017-Jun-25 16:28N 54°23' E 018°40'0 0.0
2017-Jun-25 15:58N 54°23' E 018°40'0 0.0
2017-Jun-25 15:28N 54°23' E 018°40'0 0.0
2017-Jun-25 14:55N 54°23' E 018°40'0 0.0
2017-Jun-25 14:25N 54°23' E 018°40'0 0.0
2017-Jun-25 13:28N 54°23' E 018°40'0 0.0
2017-Jun-25 12:55N 54°23' E 018°40'0 0.0
2017-Jun-25 12:28N 54°23' E 018°40'0 0.0
2017-Jun-25 11:55N 54°23' E 018°40'0 0.0
2017-Jun-25 11:28N 54°23' E 018°40'0 0.0
2017-Jun-25 10:58N 54°23' E 018°40'0 0.0
2017-Jun-25 10:28N 54°23' E 018°40'0 0.0
2017-Jun-25 09:58N 54°23' E 018°40'0 0.0
2017-Jun-25 09:28N 54°23' E 018°40'0 0.0
2017-Jun-25 08:58N 54°23' E 018°40'0 0.0
2017-Jun-25 08:28N 54°23' E 018°40'0 0.0
2017-Jun-25 07:58N 54°23' E 018°40'0 0.0
2017-Jun-25 07:28N 54°23' E 018°40'0 0.0
2017-Jun-25 06:55N 54°23' E 018°40'0 0.0
2017-Jun-25 06:28N 54°23' E 018°40'0 0.0
2017-Jun-25 05:58N 54°23' E 018°40'0 0.0
2017-Jun-25 05:28N 54°23' E 018°40'0 0.0
2017-Jun-25 04:58N 54°23' E 018°40'0 0.0
2017-Jun-25 04:28N 54°23' E 018°40'0 0.0
2017-Jun-25 03:58N 54°23' E 018°40'0 0.0
2017-Jun-25 03:28N 54°23' E 018°40'0 0.0
2017-Jun-25 02:58N 54°23' E 018°40'0 0.0
2017-Jun-25 02:28N 54°23' E 018°40'0 0.0
2017-Jun-25 01:58N 54°23' E 018°40'0 0.0
2017-Jun-25 01:28N 54°23' E 018°40'0 0.0
2017-Jun-25 00:58N 54°23' E 018°40'0 0.0
2017-Jun-25 00:28N 54°23' E 018°40'0 0.0
2017-Jun-24 23:58N 54°23' E 018°40'0 0.0
2017-Jun-24 23:28N 54°23' E 018°40'0 0.0
2017-Jun-24 22:58N 54°23' E 018°40'0 0.5
2017-Jun-24 22:31N 54°23' E 018°40'2 3.4
2017-Jun-24 22:00N 54°25' E 018°40'4 7.4
2017-Jun-24 21:31N 54°28' E 018°42'4 8.8
2017-Jun-24 21:01N 54°31' E 018°47'611.1
2017-Jun-24 20:30N 54°36' E 018°53'511.1
2017-Jun-24 20:01N 54°41' E 018°56'611.0
2017-Jun-24 19:31N 54°46' E 018°60'611.0
2017-Jun-24 19:00N 54°51' E 018°57'510.3
2017-Jun-24 18:31N 54°54' E 018°49'611.1
2017-Jun-24 18:01N 54°56' E 018°40'611.4
2017-Jun-24 17:30N 54°58' E 018°31'611.2
2017-Jun-24 17:00N 54°59' E 018°21'611.7
2017-Jun-24 16:30N 54°58' E 018°11'612.0
2017-Jun-24 16:00N 54°57' E 018°01'12812.1
2017-Jun-24 05:27N 54°35' E 014°23'1411.2
2017-Jun-24 04:14N 54°42' E 014°02'211.0
2017-Jun-24 04:00N 54°44' E 013°59'5 8.1
2017-Jun-24 03:26N 54°46' E 013°53'4 8.0
2017-Jun-24 02:57N 54°49' E 013°48'7 8.0
2017-Jun-24 02:05N 54°53' E 013°38'1 8.1
2017-Jun-24 01:59N 54°54' E 013°37'4 8.2
2017-Jun-24 01:29N 54°57' E 013°32'2512.0
2017-Jun-23 23:24N 55°12' E 012°58'513.0
2017-Jun-23 23:00N 55°15' E 012°51'713.3
2017-Jun-23 22:30N 55°17' E 012°40'612.2
2017-Jun-23 22:00N 55°23' E 012°39'612.5
2017-Jun-23 21:30N 55°29' E 012°42'612.1
2017-Jun-23 21:01N 55°34' E 012°49'612.2
2017-Jun-23 20:31N 55°39' E 012°56'612.5
2017-Jun-23 20:01N 55°44' E 012°51'713.1
2017-Jun-23 19:31N 55°50' E 012°45'612.9
2017-Jun-23 19:01N 55°55' E 012°38'612.1
2017-Jun-23 18:31N 56°01' E 012°40'611.8
2017-Jun-23 18:01N 56°06' E 012°33'713.4
2017-Jun-23 17:31N 56°10' E 012°24'713.1
2017-Jun-23 17:00N 56°13' E 012°14'713.9
2017-Jun-23 16:30N 56°17' E 012°03'6013.3
2017-Jun-23 12:01N 57°14' E 011°33'112.4
2017-Jun-23 11:56N 57°15' E 011°32'712.8
2017-Jun-23 11:23N 57°22' E 011°28'512.8
2017-Jun-23 10:58N 57°27' E 011°24'612.4
2017-Jun-23 10:29N 57°32' E 011°19'612.4
2017-Jun-23 10:00N 57°37' E 011°13'612.6
2017-Jun-23 09:29N 57°43' E 011°07'612.3
2017-Jun-23 08:59N 57°48' E 011°01'612.2
2017-Jun-23 08:30N 57°53' E 010°55'611.8
2017-Jun-23 07:58N 57°57' E 010°46'611.3
2017-Jun-23 07:28N 57°59' E 010°36'612.1
2017-Jun-23 07:00N 57°57' E 010°25'712.3
2017-Jun-23 06:28N 57°56' E 010°13'712.8
2017-Jun-23 05:53N 57°55' E 009°59'513.3
2017-Jun-23 05:30N 57°55' E 009°49'612.3
2017-Jun-23 05:00N 57°54' E 009°38'612.2
2017-Jun-23 04:30N 57°52' E 009°27'612.8
2017-Jun-23 03:59N 57°50' E 009°15'612.9
2017-Jun-23 03:30N 57°49' E 009°04'812.7
2017-Jun-23 02:54N 57°47' E 008°50'512.7
2017-Jun-23 02:29N 57°46' E 008°40'612.7
2017-Jun-23 02:00N 57°45' E 008°29'712.6
2017-Jun-23 01:25N 57°43' E 008°15'2412.5
2017-Jun-22 23:30N 57°41' E 007°31'612.4
2017-Jun-22 23:00N 57°42' E 007°19'1012.4
2017-Jun-22 22:10N 57°42' E 006°60'212.4
2017-Jun-22 22:00N 57°42' E 006°56'612.3
2017-Jun-22 21:30N 57°42' E 006°45'612.0
2017-Jun-22 21:00N 57°43' E 006°33'611.9
2017-Jun-22 20:30N 57°47' E 006°25'712.3
2017-Jun-22 19:58N 57°51' E 006°15'612.4
2017-Jun-22 19:30N 57°55' E 006°07'612.0
2017-Jun-22 19:00N 57°59' E 005°59'612.3
2017-Jun-22 18:30N 58°03' E 005°50'612.2
2017-Jun-22 17:59N 58°07' E 005°41'1812.1
2017-Jun-22 16:33N 58°19' E 005°16'112.2
2017-Jun-22 16:27N 58°20' E 005°15'811.9
2017-Jun-22 15:45N 58°28' E 005°10'312.1
2017-Jun-22 15:30N 58°30' E 005°09'612.6
2017-Jun-22 15:00N 58°37' E 005°07'612.3
2017-Jun-22 14:30N 58°43' E 005°04'1211.9
2017-Jun-22 13:30N 58°54' E 005°12'612.6
2017-Jun-22 13:00N 58°60' E 005°17'612.5
2017-Jun-22 12:30N 59°06' E 005°19'612.4
2017-Jun-22 12:00N 59°12' E 005°20'611.1
2017-Jun-22 11:30N 59°17' E 005°20'3 5.7
2017-Jun-22 11:00N 59°20' E 005°18'0 0.0
2017-Jun-22 10:28N 59°20' E 005°18'0 0.0
2017-Jun-22 10:01N 59°20' E 005°18'0 0.0
2017-Jun-22 09:28N 59°20' E 005°18'0 0.0
2017-Jun-22 09:01N 59°20' E 005°18'0 0.0
2017-Jun-22 08:28N 59°20' E 005°18'0 0.0
2017-Jun-22 07:58N 59°20' E 005°18'0 0.0
2017-Jun-22 07:28N 59°20' E 005°18'0 0.0
2017-Jun-22 06:58N 59°20' E 005°18'0 0.0
2017-Jun-22 06:31N 59°20' E 005°18'0 0.0
2017-Jun-22 06:01N 59°20' E 005°18'0 0.0
2017-Jun-22 05:31N 59°20' E 005°18'0 0.0
2017-Jun-22 04:58N 59°20' E 005°18'0 0.0
2017-Jun-22 04:31N 59°20' E 005°18'0 0.0
2017-Jun-22 03:58N 59°20' E 005°18'0 0.0
2017-Jun-22 03:28N 59°20' E 005°18'0 0.0
2017-Jun-22 03:01N 59°20' E 005°18'0 0.0
2017-Jun-22 02:28N 59°20' E 005°18'0 0.0
2017-Jun-22 02:01N 59°20' E 005°18'0 0.0
2017-Jun-22 01:28N 59°20' E 005°18'0 0.0
2017-Jun-22 00:58N 59°20' E 005°18'0 0.0
2017-Jun-22 00:31N 59°20' E 005°18'0 0.0
2017-Jun-22 00:01N 59°20' E 005°18'0 0.0
2017-Jun-21 23:28N 59°20' E 005°18'0 0.0
2017-Jun-21 23:01N 59°20' E 005°18'0 0.0
2017-Jun-21 22:28N 59°20' E 005°18'0 0.0
2017-Jun-21 22:01N 59°20' E 005°18'0 0.0
2017-Jun-21 21:28N 59°20' E 005°18'0 0.0
2017-Jun-21 20:58N 59°20' E 005°18'0 0.0
2017-Jun-21 20:28N 59°20' E 005°18'0 0.0
2017-Jun-21 20:01N 59°20' E 005°18'0 0.0
2017-Jun-21 19:31N 59°20' E 005°18'0 0.0
2017-Jun-21 19:01N 59°20' E 005°18'0 0.0
2017-Jun-21 18:28N 59°20' E 005°18'0 0.0
2017-Jun-21 17:58N 59°20' E 005°18'0 0.0
2017-Jun-21 17:31N 59°20' E 005°18'0 0.0
2017-Jun-21 17:01N 59°20' E 005°18'0 0.0
2017-Jun-21 16:28N 59°20' E 005°18'0 0.0
2017-Jun-21 16:01N 59°20' E 005°18'0 0.0
2017-Jun-21 15:28N 59°20' E 005°18'0 0.0
2017-Jun-21 15:01N 59°20' E 005°18'0 0.0
2017-Jun-21 14:31N 59°20' E 005°18'0 0.0
2017-Jun-21 13:31N 59°20' E 005°18'0 0.0
2017-Jun-21 12:58N 59°20' E 005°18'0 0.0
2017-Jun-21 12:31N 59°20' E 005°18'0 0.0
2017-Jun-21 11:58N 59°20' E 005°18'0 0.0
2017-Jun-21 11:28N 59°20' E 005°18'0 0.0
2017-Jun-21 10:58N 59°20' E 005°18'0 0.0
2017-Jun-21 10:28N 59°20' E 005°18'0 0.0
2017-Jun-21 10:01N 59°20' E 005°18'0 0.0
2017-Jun-21 09:28N 59°20' E 005°18'0 0.0
2017-Jun-21 09:01N 59°20' E 005°18'0 0.0
2017-Jun-21 08:28N 59°20' E 005°18'0 0.0
2017-Jun-21 07:58N 59°20' E 005°18'0 0.0
2017-Jun-21 07:31N 59°20' E 005°18'0 0.0
2017-Jun-21 06:58N 59°20' E 005°18'1 1.9
2017-Jun-21 06:30N 59°20' E 005°19'611.2
2017-Jun-21 06:00N 59°14' E 005°21'3 6.9
2017-Jun-21 05:31N 59°11' E 005°22'3 5.7
2017-Jun-21 05:01N 59°08' E 005°21'3 5.2
2017-Jun-21 04:31N 59°05' E 005°21'3 5.0
2017-Jun-21 04:00N 59°03' E 005°21'3 5.2
2017-Jun-21 03:30N 59°00' E 005°19'3 5.2
2017-Jun-21 03:01N 58°58' E 005°18'3 6.7
2017-Jun-21 02:30N 58°55' E 005°16'5 9.8
2017-Jun-21 02:01N 58°50' E 005°12'612.2
2017-Jun-21 01:31N 58°44' E 005°09'612.6
2017-Jun-21 01:00N 58°38' E 005°12'612.2
2017-Jun-21 00:31N 58°32' E 005°16'611.9
2017-Jun-21 00:01N 58°27' E 005°19'611.5
2017-Jun-20 23:30N 58°22' E 005°25'612.0
2017-Jun-20 23:01N 58°17' E 005°33'611.6
2017-Jun-20 22:31N 58°14' E 005°41'611.4
2017-Jun-20 22:00N 58°10' E 005°50'611.2
2017-Jun-20 21:29N 58°06' E 005°58'510.8
2017-Jun-20 21:00N 58°03' E 006°06'610.9
2017-Jun-20 20:30N 57°59' E 006°14'610.7
2017-Jun-20 19:58N 57°56' E 006°22'5 9.9
2017-Jun-20 19:30N 57°52' E 006°28'5 9.9
2017-Jun-20 18:59N 57°49' E 006°35'510.2
2017-Jun-20 18:30N 57°48' E 006°44'511.0
2017-Jun-20 18:01N 57°48' E 006°54'611.3
2017-Jun-20 17:30N 57°48' E 007°05'611.5
2017-Jun-20 17:00N 57°48' E 007°16'3610.7
2017-Jun-20 13:37N 57°55' E 008°22'210.8
2017-Jun-20 13:28N 57°55' E 008°25'70 9.8
2017-Jun-20 06:17N 58°01' E 010°37'310.6
2017-Jun-20 05:59N 57°59' E 010°43'510.3
2017-Jun-20 05:30N 57°55' E 010°49'510.3
2017-Jun-20 05:00N 57°51' E 010°55'510.4
2017-Jun-20 04:30N 57°47' E 011°00'510.9
2017-Jun-20 04:00N 57°42' E 011°06'510.6
2017-Jun-20 03:30N 57°38' E 011°12'510.2
2017-Jun-20 03:01N 57°34' E 011°18'5 9.8
2017-Jun-20 02:30N 57°30' E 011°24'510.0
2017-Jun-20 01:58N 57°26' E 011°28'510.2
2017-Jun-20 01:30N 57°21' E 011°31'510.4
2017-Jun-20 01:00N 57°16' E 011°34'610.5
2017-Jun-20 00:28N 57°11' E 011°37'510.5
2017-Jun-20 00:00N 57°06' E 011°41'611.5
2017-Jun-19 23:27N 57°00' E 011°45'712.1
2017-Jun-19 22:54N 56°54' E 011°49'612.1
2017-Jun-19 22:24N 56°48' E 011°53'3012.1
2017-Jun-19 19:53N 56°20' E 012°11'512.5
2017-Jun-19 19:30N 56°16' E 012°16'612.6
2017-Jun-19 19:01N 56°12' E 012°24'612.9
2017-Jun-19 18:30N 56°07' E 012°33'713.2
2017-Jun-19 18:01N 56°02' E 012°40'612.9
2017-Jun-19 17:31N 55°56' E 012°44'612.7
2017-Jun-19 17:01N 55°50' E 012°46'612.7
2017-Jun-19 16:31N 55°44' E 012°51'611.9
2017-Jun-19 16:01N 55°39' E 012°56'5 9.7
2017-Jun-19 15:31N 55°35' E 012°51'4 7.7
2017-Jun-19 15:01N 55°32' E 012°46'1110.9
2017-Jun-19 14:01N 55°22' E 012°41'510.3
2017-Jun-19 13:31N 55°17' E 012°45'612.2
2017-Jun-19 13:01N 55°15' E 012°55'612.4
2017-Jun-19 12:31N 55°13' E 013°05'612.3
2017-Jun-19 12:01N 55°10' E 013°14'612.2
2017-Jun-19 11:31N 55°07' E 013°24'612.1
2017-Jun-19 11:00N 55°04' E 013°33'712.2
2017-Jun-19 10:28N 55°01' E 013°44'612.1
2017-Jun-19 10:01N 54°59' E 013°52'611.9
2017-Jun-19 09:31N 54°57' E 014°02'611.7
2017-Jun-19 09:00N 54°55' E 014°12'611.8
2017-Jun-19 08:31N 54°55' E 014°22'611.8
2017-Jun-19 08:00N 54°54' E 014°32'611.8
2017-Jun-19 07:30N 54°53' E 014°42'611.8
2017-Jun-19 07:01N 54°52' E 014°52'611.7
2017-Jun-19 06:31N 54°51' E 015°02'611.7
2017-Jun-19 06:01N 54°50' E 015°13'611.7
2017-Jun-19 05:31N 54°50' E 015°23'611.7
2017-Jun-19 05:00N 54°50' E 015°33'611.8
2017-Jun-19 04:30N 54°50' E 015°43'611.8
2017-Jun-19 04:01N 54°50' E 015°53'611.9
2017-Jun-19 03:30N 54°50' E 016°04'611.9
2017-Jun-19 03:01N 54°49' E 016°14'811.9
2017-Jun-19 02:22N 54°49' E 016°27'612.1
2017-Jun-19 01:54N 54°50' E 016°37'611.9
2017-Jun-19 01:25N 54°51' E 016°47'511.8
2017-Jun-19 00:58N 54°51' E 016°56'711.6
2017-Jun-19 00:19N 54°53' E 017°09'3211.3
2017-Jun-18 21:27N 55°00' E 018°04'511.0
2017-Jun-18 20:59N 55°01' E 018°13'511.0
2017-Jun-18 20:31N 55°01' E 018°22'510.9
2017-Jun-18 20:00N 54°60' E 018°31'511.0
2017-Jun-18 19:31N 54°58' E 018°40'611.1
2017-Jun-18 19:01N 54°56' E 018°49'611.3
2017-Jun-18 18:31N 54°54' E 018°58'611.2
2017-Jun-18 18:01N 54°52' E 019°07'611.3
2017-Jun-18 17:30N 54°50' E 019°16'611.4
2017-Jun-18 17:01N 54°47' E 019°25'611.5
2017-Jun-18 16:31N 54°45' E 019°35'611.5
2017-Jun-18 16:00N 54°42' E 019°43'611.7
2017-Jun-18 15:30N 54°39' E 019°52'3 5.9
2017-Jun-18 15:00N 54°38' E 019°56'9 6.5
2017-Jun-18 13:38N 54°41' E 020°11'  

Dump ship's entire track history